sensor_id;sensor_type;location;lat;lon;timestamp;pressure;altitude;pressure_sealevel;temperature;humidity
74544;BME280;63016;55.030;38.710;2023-07-24T00:00:25;99336.13;;;17.03;60.21
74544;BME280;63016;55.030;38.710;2023-07-24T00:02:50;99318.69;;;17.02;60.51
74544;BME280;63016;55.030;38.710;2023-07-24T00:05:16;99320.50;;;17.01;60.45
74544;BME280;63016;55.030;38.710;2023-07-24T00:07:41;99331.66;;;17.03;60.43
74544;BME280;63016;55.030;38.710;2023-07-24T00:10:07;99342.41;;;17.02;60.04
74544;BME280;63016;55.030;38.710;2023-07-24T00:12:32;99338.38;;;16.99;60.57
74544;BME280;63016;55.030;38.710;2023-07-24T00:14:58;99316.88;;;16.84;60.56
74544;BME280;63016;55.030;38.710;2023-07-24T00:17:24;99341.81;;;17.00;60.47
74544;BME280;63016;55.030;38.710;2023-07-24T00:19:49;99345.25;;;17.00;60.50
74544;BME280;63016;55.030;38.710;2023-07-24T00:22:15;99341.25;;;16.98;60.17
74544;BME280;63016;55.030;38.710;2023-07-24T00:24:40;99341.25;;;16.98;60.16
74544;BME280;63016;55.030;38.710;2023-07-24T00:27:06;99355.44;;;16.96;60.38
74544;BME280;63016;55.030;38.710;2023-07-24T00:29:31;99343.50;;;16.94;60.14
74544;BME280;63016;55.030;38.710;2023-07-24T00:31:57;99342.13;;;16.91;60.45
74544;BME280;63016;55.030;38.710;2023-07-24T00:34:22;99335.00;;;16.92;60.50
74544;BME280;63016;55.030;38.710;2023-07-24T00:36:48;99342.13;;;16.91;60.20
74544;BME280;63016;55.030;38.710;2023-07-24T00:39:16;99334.88;;;16.87;60.35
74544;BME280;63016;55.030;38.710;2023-07-24T00:41:43;99328.78;;;16.86;60.52
74544;BME280;63016;55.030;38.710;2023-07-24T00:44:08;99330.41;;;16.87;60.45
74544;BME280;63016;55.030;38.710;2023-07-24T00:46:34;99328.00;;;16.86;60.15
74544;BME280;63016;55.030;38.710;2023-07-24T00:49:00;99339.72;;;16.90;60.49
74544;BME280;63016;55.030;38.710;2023-07-24T00:51:27;99343.13;;;16.90;60.45
74544;BME280;63016;55.030;38.710;2023-07-24T00:53:55;99332.84;;;16.89;60.26
74544;BME280;63016;55.030;38.710;2023-07-24T00:56:21;99332.22;;;16.87;60.41
74544;BME280;63016;55.030;38.710;2023-07-24T00:58:48;99327.84;;;16.81;60.35
74544;BME280;63016;55.030;38.710;2023-07-24T01:01:16;99330.47;;;16.81;60.12
74544;BME280;63016;55.030;38.710;2023-07-24T01:03:42;99328.88;;;16.80;60.16
74544;BME280;63016;55.030;38.710;2023-07-24T01:06:09;99336.56;;;16.81;60.26
74544;BME280;63016;55.030;38.710;2023-07-24T01:08:35;99328.50;;;16.76;60.34
74544;BME280;63016;55.030;38.710;2023-07-24T01:13:36;99326.91;;;16.75;59.99
74544;BME280;63016;55.030;38.710;2023-07-24T01:16:09;99335.03;;;16.74;59.72
74544;BME280;63016;55.030;38.710;2023-07-24T01:18:38;99327.16;;;16.67;59.92
74544;BME280;63016;55.030;38.710;2023-07-24T01:21:05;99311.66;;;16.59;59.89
74544;BME280;63016;55.030;38.710;2023-07-24T01:26:08;99333.06;;;16.62;59.97
74544;BME280;63016;55.030;38.710;2023-07-24T01:28:35;99336.72;;;16.61;59.97
74544;BME280;63016;55.030;38.710;2023-07-24T01:31:00;99328.31;;;16.53;59.81
74544;BME280;63016;55.030;38.710;2023-07-24T01:33:26;99322.09;;;16.47;59.73
74544;BME280;63016;55.030;38.710;2023-07-24T01:35:59;99317.69;;;16.41;59.85
74544;BME280;63016;55.030;38.710;2023-07-24T01:38:26;99325.59;;;16.41;59.83
74544;BME280;63016;55.030;38.710;2023-07-24T01:40:53;99333.06;;;16.44;59.94
74544;BME280;63016;55.030;38.710;2023-07-24T01:43:19;99346.00;;;16.45;60.18
74544;BME280;63016;55.030;38.710;2023-07-24T01:45:44;99345.41;;;16.43;60.13
74544;BME280;63016;55.030;38.710;2023-07-24T01:48:10;99350.91;;;16.42;60.23
74544;BME280;63016;55.030;38.710;2023-07-24T01:50:35;99347.09;;;16.38;59.88
74544;BME280;63016;55.030;38.710;2023-07-24T01:53:01;99339.47;;;16.30;60.09
74544;BME280;63016;55.030;38.710;2023-07-24T01:55:26;99341.25;;;16.36;60.29
74544;BME280;63016;55.030;38.710;2023-07-24T01:57:52;99346.88;;;16.39;60.18
74544;BME280;63016;55.030;38.710;2023-07-24T02:00:17;99343.22;;;16.40;60.33
74544;BME280;63016;55.030;38.710;2023-07-24T02:02:43;99344.59;;;16.43;60.68
74544;BME280;63016;55.030;38.710;2023-07-24T02:05:08;99350.09;;;16.41;60.72
74544;BME280;63016;55.030;38.710;2023-07-24T02:07:34;99344.56;;;16.50;60.64
74544;BME280;63016;55.030;38.710;2023-07-24T02:09:59;99349.59;;;16.51;60.53
74544;BME280;63016;55.030;38.710;2023-07-24T02:12:25;99357.72;;;16.50;60.91
74544;BME280;63016;55.030;38.710;2023-07-24T02:14:50;99349.81;;;16.50;60.60
74544;BME280;63016;55.030;38.710;2023-07-24T02:17:17;99346.59;;;16.48;60.85
74544;BME280;63016;55.030;38.710;2023-07-24T02:19:43;99351.66;;;16.49;60.85
74544;BME280;63016;55.030;38.710;2023-07-24T02:22:08;99356.31;;;16.47;60.85
74544;BME280;63016;55.030;38.710;2023-07-24T02:24:34;99364.38;;;16.52;61.01
74544;BME280;63016;55.030;38.710;2023-07-24T02:27:00;99363.34;;;16.53;60.97
74544;BME280;63016;55.030;38.710;2023-07-24T02:29:25;99354.88;;;16.51;61.14
74544;BME280;63016;55.030;38.710;2023-07-24T02:31:51;99367.69;;;16.66;61.46
74544;BME280;63016;55.030;38.710;2023-07-24T02:34:16;99369.47;;;16.72;61.23
74544;BME280;63016;55.030;38.710;2023-07-24T02:36:42;99357.72;;;16.75;61.56
74544;BME280;63016;55.030;38.710;2023-07-24T02:39:07;99355.59;;;16.83;61.41
74544;BME280;63016;55.030;38.710;2023-07-24T02:41:33;99360.22;;;16.88;61.16
74544;BME280;63016;55.030;38.710;2023-07-24T02:43:58;99362.38;;;16.91;61.28
74544;BME280;63016;55.030;38.710;2023-07-24T02:46:24;99367.00;;;16.95;61.33
74544;BME280;63016;55.030;38.710;2023-07-24T02:48:51;99365.53;;;17.00;61.13
74544;BME280;63016;55.030;38.710;2023-07-24T02:51:16;99367.53;;;17.04;61.41
74544;BME280;63016;55.030;38.710;2023-07-24T02:53:42;99358.94;;;17.09;61.54
74544;BME280;63016;55.030;38.710;2023-07-24T02:56:07;99350.69;;;17.05;61.46
74544;BME280;63016;55.030;38.710;2023-07-24T02:58:33;99368.19;;;17.18;61.43
74544;BME280;63016;55.030;38.710;2023-07-24T03:01:06;99360.41;;;17.23;61.66
74544;BME280;63016;55.030;38.710;2023-07-24T03:03:32;99358.34;;;17.25;61.43
74544;BME280;63016;55.030;38.710;2023-07-24T03:05:58;99362.16;;;17.29;61.50
74544;BME280;63016;55.030;38.710;2023-07-24T03:08:23;99366.75;;;17.34;61.04
74544;BME280;63016;55.030;38.710;2023-07-24T03:10:49;99370.78;;;17.36;61.17
74544;BME280;63016;55.030;38.710;2023-07-24T03:13:14;99364.50;;;17.37;61.23
74544;BME280;63016;55.030;38.710;2023-07-24T03:15:40;99370.94;;;17.41;60.94
74544;BME280;63016;55.030;38.710;2023-07-24T03:18:05;99363.59;;;17.43;61.02
74544;BME280;63016;55.030;38.710;2023-07-24T03:20:31;99363.16;;;17.46;61.08
74544;BME280;63016;55.030;38.710;2023-07-24T03:22:56;99364.19;;;17.45;61.03
74544;BME280;63016;55.030;38.710;2023-07-24T03:25:22;99366.28;;;17.55;61.28
74544;BME280;63016;55.030;38.710;2023-07-24T03:27:48;99373.75;;;17.58;61.23
74544;BME280;63016;55.030;38.710;2023-07-24T03:30:13;99368.84;;;17.62;61.10
74544;BME280;63016;55.030;38.710;2023-07-24T03:32:39;99372.63;;;17.66;61.17
74544;BME280;63016;55.030;38.710;2023-07-24T03:35:06;99367.13;;;17.67;61.29
74544;BME280;63016;55.030;38.710;2023-07-24T03:37:33;99367.94;;;17.68;61.40
74544;BME280;63016;55.030;38.710;2023-07-24T03:39:58;99370.53;;;17.75;61.40
74544;BME280;63016;55.030;38.710;2023-07-24T03:42:25;99379.94;;;17.82;61.28
74544;BME280;63016;55.030;38.710;2023-07-24T03:44:51;99370.53;;;17.86;61.41
74544;BME280;63016;55.030;38.710;2023-07-24T03:47:17;99372.94;;;17.88;61.29
74544;BME280;63016;55.030;38.710;2023-07-24T03:49:42;99377.56;;;17.92;60.99
74544;BME280;63016;55.030;38.710;2023-07-24T03:52:08;99363.91;;;17.95;61.32
74544;BME280;63016;55.030;38.710;2023-07-24T03:54:33;99372.19;;;17.99;60.98
74544;BME280;63016;55.030;38.710;2023-07-24T03:56:58;99372.53;;;18.03;61.11
74544;BME280;63016;55.030;38.710;2023-07-24T03:59:24;99370.47;;;18.05;61.00
74544;BME280;63016;55.030;38.710;2023-07-24T04:01:49;99370.59;;;18.10;61.32
74544;BME280;63016;55.030;38.710;2023-07-24T04:04:15;99367.28;;;18.14;61.13
74544;BME280;63016;55.030;38.710;2023-07-24T04:06:40;99359.81;;;18.11;61.25
74544;BME280;63016;55.030;38.710;2023-07-24T04:09:06;99379.31;;;18.22;61.30
74544;BME280;63016;55.030;38.710;2023-07-24T04:11:31;99365.56;;;18.20;61.36
74544;BME280;63016;55.030;38.710;2023-07-24T04:13:57;99381.88;;;18.29;61.09
74544;BME280;63016;55.030;38.710;2023-07-24T04:16:22;99378.56;;;18.33;61.03
74544;BME280;63016;55.030;38.710;2023-07-24T04:18:48;99367.19;;;18.33;61.10
74544;BME280;63016;55.030;38.710;2023-07-24T04:21:13;99372.09;;;18.41;60.92
74544;BME280;63016;55.030;38.710;2023-07-24T04:23:39;99380.16;;;18.46;60.83
74544;BME280;63016;55.030;38.710;2023-07-24T04:26:04;99370.75;;;18.50;60.84
74544;BME280;63016;55.030;38.710;2023-07-24T04:28:29;99376.13;;;18.55;61.07
74544;BME280;63016;55.030;38.710;2023-07-24T04:30:55;99375.44;;;18.60;61.04
74544;BME280;63016;55.030;38.710;2023-07-24T04:33:20;99373.50;;;18.67;61.04
74544;BME280;63016;55.030;38.710;2023-07-24T04:35:49;99371.22;;;18.70;60.91
74544;BME280;63016;55.030;38.710;2023-07-24T04:38:14;99377.19;;;18.78;61.14
74544;BME280;63016;55.030;38.710;2023-07-24T04:40:43;99365.13;;;18.82;61.23
74544;BME280;63016;55.030;38.710;2023-07-24T04:43:09;99364.53;;;18.91;61.41
74544;BME280;63016;55.030;38.710;2023-07-24T04:45:35;99356.72;;;18.96;60.91
74544;BME280;63016;55.030;38.710;2023-07-24T04:48:00;99359.56;;;19.07;61.12
74544;BME280;63016;55.030;38.710;2023-07-24T04:50:26;99353.34;;;19.13;61.10
74544;BME280;63016;55.030;38.710;2023-07-24T04:52:51;99346.28;;;19.18;61.07
74544;BME280;63016;55.030;38.710;2023-07-24T04:55:16;99348.44;;;19.33;60.85
74544;BME280;63016;55.030;38.710;2023-07-24T04:57:42;99361.03;;;19.43;60.61
74544;BME280;63016;55.030;38.710;2023-07-24T05:00:08;99347.34;;;19.46;60.55
74544;BME280;63016;55.030;38.710;2023-07-24T05:02:33;99356.06;;;19.58;60.71
74544;BME280;63016;55.030;38.710;2023-07-24T05:04:59;99359.47;;;19.70;60.74
74544;BME280;63016;55.030;38.710;2023-07-24T05:07:24;99355.41;;;19.80;60.44
74544;BME280;63016;55.030;38.710;2023-07-24T05:09:50;99364.06;;;19.92;60.63
74544;BME280;63016;55.030;38.710;2023-07-24T05:12:15;99363.41;;;20.01;60.53
74544;BME280;63016;55.030;38.710;2023-07-24T05:14:40;99353.81;;;20.12;60.71
74544;BME280;63016;55.030;38.710;2023-07-24T05:17:06;99349.72;;;20.21;60.51
74544;BME280;63016;55.030;38.710;2023-07-24T05:19:31;99349.63;;;20.33;60.13
74544;BME280;63016;55.030;38.710;2023-07-24T05:21:57;99348.16;;;20.42;59.95
74544;BME280;63016;55.030;38.710;2023-07-24T05:24:24;99356.28;;;20.52;59.10
74544;BME280;63016;55.030;38.710;2023-07-24T05:26:49;99357.22;;;20.63;59.52
74544;BME280;63016;55.030;38.710;2023-07-24T05:29:15;99353.69;;;20.74;59.12
74544;BME280;63016;55.030;38.710;2023-07-24T05:31:40;99357.50;;;20.84;58.90
74544;BME280;63016;55.030;38.710;2023-07-24T05:34:06;99351.28;;;20.95;58.75
74544;BME280;63016;55.030;38.710;2023-07-24T05:36:31;99355.66;;;21.06;59.11
74544;BME280;63016;55.030;38.710;2023-07-24T05:38:57;99353.69;;;21.18;58.97
74544;BME280;63016;55.030;38.710;2023-07-24T05:41:23;99355.19;;;21.31;58.40
74544;BME280;63016;55.030;38.710;2023-07-24T05:43:48;99335.91;;;21.41;58.41
74544;BME280;63016;55.030;38.710;2023-07-24T05:46:15;99341.03;;;21.47;57.77
74544;BME280;63016;55.030;38.710;2023-07-24T05:48:41;99344.53;;;21.53;57.46
74544;BME280;63016;55.030;38.710;2023-07-24T05:51:06;99343.00;;;21.57;57.49
74544;BME280;63016;55.030;38.710;2023-07-24T05:53:32;99342.25;;;21.62;57.66
74544;BME280;63016;55.030;38.710;2023-07-24T05:55:58;99350.00;;;21.68;57.69
74544;BME280;63016;55.030;38.710;2023-07-24T05:58:25;99347.38;;;21.73;57.42
74544;BME280;63016;55.030;38.710;2023-07-24T06:00:50;99350.63;;;21.80;57.62
74544;BME280;63016;55.030;38.710;2023-07-24T06:03:16;99344.38;;;21.92;57.59
74544;BME280;63016;55.030;38.710;2023-07-24T06:05:41;99345.50;;;22.01;57.40
74544;BME280;63016;55.030;38.710;2023-07-24T06:08:07;99337.63;;;22.11;57.20
74544;BME280;63016;55.030;38.710;2023-07-24T06:10:34;99340.38;;;22.21;56.62
74544;BME280;63016;55.030;38.710;2023-07-24T06:13:00;99338.28;;;22.28;56.44
74544;BME280;63016;55.030;38.710;2023-07-24T06:15:25;99341.81;;;22.39;56.50
74544;BME280;63016;55.030;38.710;2023-07-24T06:17:50;99341.59;;;22.46;56.20
74544;BME280;63016;55.030;38.710;2023-07-24T06:20:16;99330.19;;;22.50;56.48
74544;BME280;63016;55.030;38.710;2023-07-24T06:22:42;99329.47;;;22.65;56.33
74544;BME280;63016;55.030;38.710;2023-07-24T06:25:07;99340.97;;;22.81;56.70
74544;BME280;63016;55.030;38.710;2023-07-24T06:27:33;99336.50;;;22.92;56.26
74544;BME280;63016;55.030;38.710;2023-07-24T06:29:58;99344.28;;;22.98;56.07
74544;BME280;63016;55.030;38.710;2023-07-24T06:32:24;99338.72;;;23.05;55.87
74544;BME280;63016;55.030;38.710;2023-07-24T06:34:49;99337.66;;;23.11;56.06
74544;BME280;63016;55.030;38.710;2023-07-24T06:37:15;99335.03;;;23.16;55.74
74544;BME280;63016;55.030;38.710;2023-07-24T06:39:40;99340.91;;;23.28;54.90
74544;BME280;63016;55.030;38.710;2023-07-24T06:42:05;99338.25;;;23.33;55.02
74544;BME280;63016;55.030;38.710;2023-07-24T06:44:31;99339.88;;;23.40;55.33
74544;BME280;63016;55.030;38.710;2023-07-24T06:46:56;99340.16;;;23.48;55.34
74544;BME280;63016;55.030;38.710;2023-07-24T06:49:22;99337.78;;;23.57;55.16
74544;BME280;63016;55.030;38.710;2023-07-24T06:51:47;99339.41;;;23.68;55.68
74544;BME280;63016;55.030;38.710;2023-07-24T06:54:13;99336.50;;;23.75;54.54
74544;BME280;63016;55.030;38.710;2023-07-24T06:56:38;99339.69;;;23.77;54.43
74544;BME280;63016;55.030;38.710;2023-07-24T06:59:04;99333.03;;;23.79;54.51
74544;BME280;63016;55.030;38.710;2023-07-24T07:01:29;99344.50;;;23.90;54.48
74544;BME280;63016;55.030;38.710;2023-07-24T07:03:54;99342.34;;;23.97;54.48
74544;BME280;63016;55.030;38.710;2023-07-24T07:06:20;99351.97;;;24.03;53.78
74544;BME280;63016;55.030;38.710;2023-07-24T07:08:45;99340.22;;;24.04;54.06
74544;BME280;63016;55.030;38.710;2023-07-24T07:11:11;99341.53;;;24.12;54.04
74544;BME280;63016;55.030;38.710;2023-07-24T07:13:36;99341.53;;;24.17;53.68
74544;BME280;63016;55.030;38.710;2023-07-24T07:16:02;99341.56;;;24.27;53.36
74544;BME280;63016;55.030;38.710;2023-07-24T07:18:28;99345.81;;;24.28;53.30
74544;BME280;63016;55.030;38.710;2023-07-24T07:20:53;99349.25;;;24.34;54.14
74544;BME280;63016;55.030;38.710;2023-07-24T07:23:20;99351.16;;;24.39;53.83
74544;BME280;63016;55.030;38.710;2023-07-24T07:25:46;99345.53;;;24.45;52.99
74544;BME280;63016;55.030;38.710;2023-07-24T07:28:15;99355.13;;;24.46;53.04
74544;BME280;63016;55.030;38.710;2023-07-24T07:30:42;99350.59;;;24.52;52.44
74544;BME280;63016;55.030;38.710;2023-07-24T07:33:08;99351.63;;;24.56;52.51
74544;BME280;63016;55.030;38.710;2023-07-24T07:35:34;99340.44;;;24.54;52.95
74544;BME280;63016;55.030;38.710;2023-07-24T07:38:00;99346.31;;;24.66;52.82
74544;BME280;63016;55.030;38.710;2023-07-24T07:40:26;99342.28;;;24.69;52.63
74544;BME280;63016;55.030;38.710;2023-07-24T07:42:55;99345.19;;;24.72;52.04
74544;BME280;63016;55.030;38.710;2023-07-24T07:45:21;99348.94;;;24.76;52.47
74544;BME280;63016;55.030;38.710;2023-07-24T07:47:47;99354.50;;;24.80;52.50
74544;BME280;63016;55.030;38.710;2023-07-24T07:50:12;99355.03;;;24.82;52.28
74544;BME280;63016;55.030;38.710;2023-07-24T07:52:38;99350.25;;;24.79;51.96
74544;BME280;63016;55.030;38.710;2023-07-24T07:55:05;99353.72;;;24.74;51.98
74544;BME280;63016;55.030;38.710;2023-07-24T07:57:35;99356.13;;;24.71;51.98
74544;BME280;63016;55.030;38.710;2023-07-24T08:00:02;99341.47;;;24.73;52.69
74544;BME280;63016;55.030;38.710;2023-07-24T08:02:28;99348.38;;;24.79;52.29
74544;BME280;63016;55.030;38.710;2023-07-24T08:04:53;99352.88;;;24.84;51.97
74544;BME280;63016;55.030;38.710;2023-07-24T08:07:19;99345.94;;;24.88;52.17
74544;BME280;63016;55.030;38.710;2023-07-24T08:09:45;99342.75;;;24.91;51.88
74544;BME280;63016;55.030;38.710;2023-07-24T08:12:11;99342.75;;;24.91;51.85
74544;BME280;63016;55.030;38.710;2023-07-24T08:14:36;99352.88;;;24.89;51.29
74544;BME280;63016;55.030;38.710;2023-07-24T08:17:02;99345.69;;;24.79;51.37
74544;BME280;63016;55.030;38.710;2023-07-24T08:19:28;99342.78;;;24.81;51.22
74544;BME280;63016;55.030;38.710;2023-07-24T08:21:54;99348.38;;;24.79;51.57
74544;BME280;63016;55.030;38.710;2023-07-24T08:24:20;99345.44;;;24.81;51.97
74544;BME280;63016;55.030;38.710;2023-07-24T08:26:45;99351.03;;;24.84;51.83
74544;BME280;63016;55.030;38.710;2023-07-24T08:29:11;99350.50;;;24.82;52.02
74544;BME280;63016;55.030;38.710;2023-07-24T08:31:36;99339.31;;;24.80;51.48
74544;BME280;63016;55.030;38.710;2023-07-24T08:34:01;99334.50;;;24.82;51.75
74544;BME280;63016;55.030;38.710;2023-07-24T08:36:27;99345.69;;;24.84;51.96
74544;BME280;63016;55.030;38.710;2023-07-24T08:38:52;99338.47;;;24.85;51.92
74544;BME280;63016;55.030;38.710;2023-07-24T08:41:18;99344.63;;;24.85;51.40
74544;BME280;63016;55.030;38.710;2023-07-24T08:43:43;99332.34;;;24.79;51.20
74544;BME280;63016;55.030;38.710;2023-07-24T08:46:10;99332.66;;;24.73;51.02
74544;BME280;63016;55.030;38.710;2023-07-24T08:48:39;99340.41;;;24.69;51.10
74544;BME280;63016;55.030;38.710;2023-07-24T08:51:07;99344.16;;;24.68;51.29
74544;BME280;63016;55.030;38.710;2023-07-24T08:53:34;99340.97;;;24.66;50.83
74544;BME280;63016;55.030;38.710;2023-07-24T08:56:02;99338.81;;;24.63;51.32
74544;BME280;63016;55.030;38.710;2023-07-24T08:58:29;99325.22;;;24.59;51.99
74544;BME280;63016;55.030;38.710;2023-07-24T09:00:56;99334.81;;;24.60;51.45
74544;BME280;63016;55.030;38.710;2023-07-24T09:03:22;99335.38;;;24.57;51.22
74544;BME280;63016;55.030;38.710;2023-07-24T09:05:48;99336.19;;;24.58;50.99
74544;BME280;63016;55.030;38.710;2023-07-24T09:08:13;99337.50;;;24.55;51.29
74544;BME280;63016;55.030;38.710;2023-07-24T09:10:40;99325.78;;;24.51;50.74
74544;BME280;63016;55.030;38.710;2023-07-24T09:13:05;99320.72;;;24.45;50.98
74544;BME280;63016;55.030;38.710;2023-07-24T09:15:44;99332.19;;;24.50;51.74
74544;BME280;63016;55.030;38.710;2023-07-24T09:18:10;99331.13;;;24.46;51.71
74544;BME280;63016;55.030;38.710;2023-07-24T09:20:40;99334.59;;;24.42;51.48
74544;BME280;63016;55.030;38.710;2023-07-24T09:23:07;99349.28;;;24.44;51.31
74544;BME280;63016;55.030;38.710;2023-07-24T09:25:35;99342.59;;;24.36;51.31
74544;BME280;63016;55.030;38.710;2023-07-24T09:28:09;99340.72;;;24.27;51.08
74544;BME280;63016;55.030;38.710;2023-07-24T09:30:34;99341.53;;;24.17;52.09
74544;BME280;63016;55.030;38.710;2023-07-24T09:33:00;99340.50;;;24.13;52.43
74544;BME280;63016;55.030;38.710;2023-07-24T09:35:25;99339.44;;;24.09;52.24
74544;BME280;63016;55.030;38.710;2023-07-24T09:38:06;99334.63;;;24.06;52.33
74544;BME280;63016;55.030;38.710;2023-07-24T09:40:40;99335.44;;;24.01;52.19
74544;BME280;63016;55.030;38.710;2023-07-24T09:43:25;99338.66;;;23.98;52.55
74544;BME280;63016;55.030;38.710;2023-07-24T09:45:52;99325.28;;;23.88;52.16
74544;BME280;63016;55.030;38.710;2023-07-24T09:48:18;99334.63;;;23.96;51.95
74544;BME280;63016;55.030;38.710;2023-07-24T09:50:46;99335.44;;;23.96;52.13
74544;BME280;63016;55.030;38.710;2023-07-24T09:53:22;99330.91;;;23.97;52.64
74544;BME280;63016;55.030;38.710;2023-07-24T09:55:51;99327.16;;;23.98;52.48
74544;BME280;63016;55.030;38.710;2023-07-24T09:58:20;99328.50;;;23.95;52.60
74544;BME280;63016;55.030;38.710;2023-07-24T10:00:48;99328.22;;;23.97;53.16
74544;BME280;63016;55.030;38.710;2023-07-24T10:03:16;99319.16;;;23.98;53.08
74544;BME280;63016;55.030;38.710;2023-07-24T10:05:43;99322.09;;;24.01;53.17
74544;BME280;63016;55.030;38.710;2023-07-24T10:08:10;99317.56;;;24.02;53.27
74544;BME280;63016;55.030;38.710;2023-07-24T10:10:38;99321.84;;;24.08;53.39
74544;BME280;63016;55.030;38.710;2023-07-24T10:13:04;99315.16;;;24.10;53.36
74544;BME280;63016;55.030;38.710;2023-07-24T10:15:30;99320.50;;;24.10;53.48
74544;BME280;63016;55.030;38.710;2023-07-24T10:18:04;99325.03;;;24.15;53.80
74544;BME280;63016;55.030;38.710;2023-07-24T10:20:38;99331.44;;;24.14;53.52
74544;BME280;63016;55.030;38.710;2023-07-24T10:23:09;99330.66;;;24.08;53.28
74544;BME280;63016;55.030;38.710;2023-07-24T10:25:37;99333.03;;;24.00;53.13
74544;BME280;63016;55.030;38.710;2023-07-24T10:28:07;99335.94;;;23.93;53.21
74544;BME280;63016;55.030;38.710;2023-07-24T10:30:36;99330.09;;;23.86;52.87
74544;BME280;63016;55.030;38.710;2023-07-24T10:33:10;99322.38;;;23.84;53.18
74544;BME280;63016;55.030;38.710;2023-07-24T10:35:44;99316.50;;;23.77;53.21
74544;BME280;63016;55.030;38.710;2023-07-24T10:38:13;99308.53;;;23.82;53.52
74544;BME280;63016;55.030;38.710;2023-07-24T10:40:46;99311.47;;;23.81;53.79
74544;BME280;63016;55.030;38.710;2023-07-24T10:43:19;99301.06;;;23.79;53.56
74544;BME280;63016;55.030;38.710;2023-07-24T10:45:51;99310.94;;;23.79;53.79
74544;BME280;63016;55.030;38.710;2023-07-24T10:48:20;99300.28;;;23.79;53.41
74544;BME280;63016;55.030;38.710;2023-07-24T10:50:48;99295.19;;;23.72;53.53
74544;BME280;63016;55.030;38.710;2023-07-24T10:53:17;99302.66;;;23.75;53.22
74544;BME280;63016;55.030;38.710;2023-07-24T10:55:43;99290.94;;;23.76;53.72
74544;BME280;63016;55.030;38.710;2023-07-24T10:58:09;99298.94;;;23.76;53.59
74544;BME280;63016;55.030;38.710;2023-07-24T11:00:35;99288.00;;;23.73;53.21
74544;BME280;63016;55.030;38.710;2023-07-24T11:03:01;99294.94;;;23.74;53.65
74544;BME280;63016;55.030;38.710;2023-07-24T11:05:27;99282.94;;;23.76;53.97
74544;BME280;63016;55.030;38.710;2023-07-24T11:07:52;99284.81;;;23.76;53.85
74544;BME280;63016;55.030;38.710;2023-07-24T11:10:20;99289.34;;;23.75;53.55
74544;BME280;63016;55.030;38.710;2023-07-24T11:12:46;99288.00;;;23.73;53.77
74544;BME280;63016;55.030;38.710;2023-07-24T11:15:12;99281.88;;;23.72;53.72
74544;BME280;63016;55.030;38.710;2023-07-24T11:17:40;99280.28;;;23.71;53.84
74544;BME280;63016;55.030;38.710;2023-07-24T11:20:13;99277.91;;;23.70;53.81
74544;BME280;63016;55.030;38.710;2023-07-24T11:22:40;99275.25;;;23.70;53.87
74544;BME280;63016;55.030;38.710;2023-07-24T11:25:06;99273.91;;;23.67;53.67
74544;BME280;63016;55.030;38.710;2023-07-24T11:27:32;99268.03;;;23.65;53.88
74544;BME280;63016;55.030;38.710;2023-07-24T11:29:58;99264.81;;;23.63;53.39
74544;BME280;63016;55.030;38.710;2023-07-24T11:32:24;99270.41;;;23.62;53.07
74544;BME280;63016;55.030;38.710;2023-07-24T11:34:50;99261.34;;;23.57;53.25
74544;BME280;63016;55.030;38.710;2023-07-24T11:37:17;99260.03;;;23.55;53.23
74544;BME280;63016;55.030;38.710;2023-07-24T11:39:55;99265.34;;;23.50;53.29
74544;BME280;63016;55.030;38.710;2023-07-24T11:42:20;99257.34;;;23.45;52.99
74544;BME280;63016;55.030;38.710;2023-07-24T11:44:46;99257.59;;;23.38;53.12
74544;BME280;63016;55.030;38.710;2023-07-24T11:47:11;99262.13;;;23.27;52.66
74544;BME280;63016;55.030;38.710;2023-07-24T11:49:37;99256.78;;;23.17;53.79
74544;BME280;63016;55.030;38.710;2023-07-24T11:52:04;99255.44;;;23.15;53.56
74544;BME280;63016;55.030;38.710;2023-07-24T11:54:30;99245.88;;;23.14;54.34
74544;BME280;63016;55.030;38.710;2023-07-24T11:56:55;99245.34;;;23.17;54.39
74544;BME280;63016;55.030;38.710;2023-07-24T11:59:21;99248.00;;;23.22;54.37
74544;BME280;63016;55.030;38.710;2023-07-24T12:01:47;99234.94;;;23.20;54.78
74544;BME280;63016;55.030;38.710;2023-07-24T12:04:14;99237.38;;;23.27;54.22
74544;BME280;63016;55.030;38.710;2023-07-24T12:06:40;99245.59;;;23.25;54.07
74544;BME280;63016;55.030;38.710;2023-07-24T12:09:06;99234.72;;;23.22;53.97
74544;BME280;63016;55.030;38.710;2023-07-24T12:11:32;99228.03;;;23.19;53.89
74544;BME280;63016;55.030;38.710;2023-07-24T12:13:58;99224.84;;;23.17;54.52
74544;BME280;63016;55.030;38.710;2023-07-24T12:16:24;99223.50;;;23.20;54.33
74544;BME280;63016;55.030;38.710;2023-07-24T12:18:50;99220.31;;;23.18;53.90
74544;BME280;63016;55.030;38.710;2023-07-24T12:21:16;99220.84;;;23.15;54.16
74544;BME280;63016;55.030;38.710;2023-07-24T12:23:41;99212.06;;;23.14;54.31
74544;BME280;63016;55.030;38.710;2023-07-24T12:26:07;99213.13;;;23.13;54.06
74544;BME280;63016;55.030;38.710;2023-07-24T12:28:32;99216.31;;;23.10;54.29
74544;BME280;63016;55.030;38.710;2023-07-24T12:30:58;99215.78;;;23.08;53.78
74544;BME280;63016;55.030;38.710;2023-07-24T12:33:24;99203.00;;;23.05;53.99
74544;BME280;63016;55.030;38.710;2023-07-24T12:35:52;99201.94;;;23.01;54.12
74544;BME280;63016;55.030;38.710;2023-07-24T12:38:18;99204.34;;;23.02;53.99
74544;BME280;63016;55.030;38.710;2023-07-24T12:40:44;99203.00;;;23.00;54.25
74544;BME280;63016;55.030;38.710;2023-07-24T12:43:09;99196.34;;;22.97;54.17
74544;BME280;63016;55.030;38.710;2023-07-24T12:45:35;99189.41;;;22.96;54.41
74544;BME280;63016;55.030;38.710;2023-07-24T12:48:01;99178.53;;;22.93;54.42
74544;BME280;63016;55.030;38.710;2023-07-24T12:50:26;99167.59;;;22.89;54.19